My Codene — E5U2196 — position and weather

sailwx.info

Track history (hours):
 
Tides and Currents Weather Stations Pressure Air Temp Water Temp Dewpoint Dewpoint Depression Visibility Wind Speed Wind Dir Waves Ship Positions

My Codene

Last reported at 2014-Nov-28 20:16 UTC. Time now 2014-Nov-29 05:03 UTC.
Position S 27°58' E 153°25'.

Length 34 m.

Type: Pleasure craft. MMSI: 512151000.

Date/timePositionNaut miles runAvg speedWind from/ knotsBaromVisibWave heightAir tempDewpointWater temp
2014-Nov-28 20:16S 27°58' E 153°25'0 0.0
2014-Nov-28 15:04S 27°58' E 153°25'0 0.0
2014-Nov-28 14:19S 27°58' E 153°25'0 0.0
2014-Nov-28 13:28S 27°58' E 153°25'0 0.0
2014-Nov-28 07:10S 27°58' E 153°25'0 0.0
2014-Nov-28 05:28S 27°58' E 153°25'0 0.0
2014-Nov-28 04:28S 27°58' E 153°25'0 0.0
2014-Nov-28 03:16S 27°58' E 153°25'0 0.0
2014-Nov-28 02:04S 27°58' E 153°25'0 0.0
2014-Nov-28 01:28S 27°58' E 153°25'0 0.0
2014-Nov-28 00:16S 27°58' E 153°25'4 5.6
2014-Nov-27 23:33S 27°55' E 153°28'8 8.3
2014-Nov-27 22:33S 27°47' E 153°32'9 8.8
2014-Nov-27 21:33S 27°39' E 153°34'43 8.0
2014-Nov-27 16:10S 26°57' E 153°22'6 7.1
2014-Nov-27 15:19S 27°03' E 153°21'7 1.4
2014-Nov-27 10:06S 27°11' E 153°21'0 0.0
2014-Nov-27 09:06S 27°11' E 153°21'0 0.4
2014-Nov-27 08:28S 27°11' E 153°21'  
Track history (hours):
 
Tides and Currents Weather Stations Pressure Air Temp Water Temp Dewpoint Dewpoint Depression Visibility Wind Speed Wind Dir Waves Ship Positions

My Codene

Last reported at 2014-Nov-28 20:16 UTC. Time now 2014-Nov-29 05:03 UTC.
Position S 27°58' E 153°25'.

Length 34 m.

Type: Pleasure craft. MMSI: 512151000.

Date/timePositionNaut miles runAvg speedWind from/ knotsBaromVisibWave heightAir tempDewpointWater temp
2014-Nov-28 20:16S 27°58' E 153°25'0 0.0
2014-Nov-28 15:04S 27°58' E 153°25'0 0.0
2014-Nov-28 14:19S 27°58' E 153°25'0 0.0
2014-Nov-28 13:28S 27°58' E 153°25'0 0.0
2014-Nov-28 07:10S 27°58' E 153°25'0 0.0
2014-Nov-28 05:28S 27°58' E 153°25'0 0.0
2014-Nov-28 04:28S 27°58' E 153°25'0 0.0
2014-Nov-28 03:16S 27°58' E 153°25'0 0.0
2014-Nov-28 02:04S 27°58' E 153°25'0 0.0
2014-Nov-28 01:28S 27°58' E 153°25'0 0.0
2014-Nov-28 00:16S 27°58' E 153°25'4 5.6
2014-Nov-27 23:33S 27°55' E 153°28'8 8.3
2014-Nov-27 22:33S 27°47' E 153°32'9 8.8
2014-Nov-27 21:33S 27°39' E 153°34'43 8.0
2014-Nov-27 16:10S 26°57' E 153°22'6 7.1
2014-Nov-27 15:19S 27°03' E 153°21'7 1.4
2014-Nov-27 10:06S 27°11' E 153°21'0 0.0
2014-Nov-27 09:06S 27°11' E 153°21'0 0.4
2014-Nov-27 08:28S 27°11' E 153°21'  

Dump ship's entire track history